Time;durP1;ratioP1;P1;durP2;ratioP2;P2;SDS_P1;SDS_P2;PMS_P1;PMS_P2;Temp;Humidity;BMP_temperature;BMP_pressure;BME280_temperature;BME280_humidity;BME280_pressure;Samples;Min_cycle;Max_cycle;Signal;HPM_P1;HPM_P2
2021/01/23 00:00:43;;;;;;;57.97;4.60;;;1.60;1.00;;;;;;5073881;28;20299;-67
2021/01/23 00:03:09;;;;;;;58.28;5.45;;;1.60;1.00;;;;;;5073660;28;20243;-67
2021/01/23 00:05:35;;;;;;;58.33;5.53;;;1.50;1.00;;;;;;5073967;28;20216;-67
2021/01/23 00:08:02;;;;;;;58.40;5.10;;;1.50;1.00;;;;;;5073806;28;20244;-67
2021/01/23 00:10:30;;;;;;;57.85;4.40;;;1.50;1.00;;;;;;5073656;28;20711;-67
2021/01/23 00:12:57;;;;;;;57.90;4.38;;;1.50;1.00;;;;;;5071972;28;20239;-67
2021/01/23 00:15:23;;;;;;;58.65;5.38;;;1.50;1.00;;;;;;5073680;28;20251;-67
2021/01/23 00:17:49;;;;;;;57.22;4.70;;;1.40;1.00;;;;;;5073472;28;20209;-67
2021/01/23 00:20:16;;;;;;;57.20;4.70;;;1.40;1.00;;;;;;5073737;28;20217;-67
2021/01/23 00:22:42;;;;;;;59.15;5.10;;;1.40;1.00;;;;;;5073347;28;20201;-67
2021/01/23 00:25:09;;;;;;;57.90;5.13;;;1.40;1.00;;;;;;5073540;28;20227;-67
2021/01/23 00:27:39;;;;;;;58.60;5.00;;;1.40;1.00;;;;;;5073383;28;20288;-67
2021/01/23 00:30:06;;;;;;;57.70;5.88;;;1.40;1.00;;;;;;5073499;28;20669;-68
2021/01/23 00:32:32;;;;;;;58.90;5.15;;;1.40;1.00;;;;;;5072898;28;20231;-68
2021/01/23 00:34:59;;;;;;;58.00;4.75;;;1.40;1.00;;;;;;5073453;28;20828;-68
2021/01/23 00:37:25;;;;;;;58.08;5.50;;;1.40;1.00;;;;;;5073440;28;20296;-68
2021/01/23 00:39:51;;;;;;;58.67;5.35;;;1.30;1.00;;;;;;5073420;28;20205;-68
2021/01/23 00:42:18;;;;;;;58.38;4.68;;;1.30;1.00;;;;;;5072986;28;20205;-68
2021/01/23 00:44:45;;;;;;;57.25;4.70;;;1.30;1.00;;;;;;5073258;28;20221;-68
2021/01/23 00:47:11;;;;;;;57.60;4.90;;;1.30;1.00;;;;;;5073022;28;20209;-68
2021/01/23 00:49:38;;;;;;;58.08;5.28;;;1.30;1.00;;;;;;5071848;28;20205;-68
2021/01/23 00:52:04;;;;;;;58.70;5.70;;;1.30;1.00;;;;;;5072942;28;20236;-68
2021/01/23 00:54:31;;;;;;;58.10;5.00;;;1.30;1.00;;;;;;5072831;28;20727;-68
2021/01/23 00:56:57;;;;;;;58.17;5.30;;;1.30;1.00;;;;;;5073011;28;20236;-68
2021/01/23 00:59:23;;;;;;;58.05;5.32;;;1.30;1.00;;;;;;5072855;28;20298;-68
2021/01/23 01:01:50;;;;;;;57.65;5.00;;;1.30;1.00;;;;;;5072693;28;20217;-67
2021/01/23 01:04:17;;;;;;;58.53;5.15;;;1.30;1.00;;;;;;5072873;28;20221;-67
2021/01/23 01:06:43;;;;;;;59.83;5.90;;;1.30;1.00;;;;;;5072912;28;20367;-67
2021/01/23 01:09:10;;;;;;;58.40;5.57;;;1.30;1.00;;;;;;5072956;28;20205;-68
2021/01/23 01:11:36;;;;;;;58.58;5.70;;;1.30;1.00;;;;;;5072638;28;20686;-68
2021/01/23 01:14:03;;;;;;;60.47;6.05;;;1.30;1.00;;;;;;5072178;28;20268;-68
2021/01/23 01:16:29;;;;;;;60.92;6.35;;;1.30;1.00;;;;;;5072781;28;20244;-68
2021/01/23 01:18:56;;;;;;;58.80;6.15;;;1.30;1.20;;;;;;5072426;28;20212;-68
2021/01/23 01:21:23;;;;;;;59.28;6.20;;;1.40;1.90;;;;;;5072498;28;20247;-68
2021/01/23 01:23:49;;;;;;;60.22;6.63;;;1.40;2.70;;;;;;5072244;28;20263;-68
2021/01/23 01:26:15;;;;;;;58.95;5.30;;;1.40;3.20;;;;;;5072405;28;20244;-68
2021/01/23 01:28:42;;;;;;;58.65;5.05;;;1.40;3.70;;;;;;5072223;28;20216;-68
2021/01/23 01:31:09;;;;;;;57.97;4.70;;;1.40;5.00;;;;;;5072603;28;20208;-68
2021/01/23 01:33:35;;;;;;;60.78;5.32;;;1.40;5.90;;;;;;5071984;28;20256;-68
2021/01/23 01:36:02;;;;;;;57.42;4.20;;;1.40;7.00;;;;;;5072110;28;20205;-68
2021/01/23 01:38:29;;;;;;;57.53;4.25;;;1.40;7.40;;;;;;5072123;28;20213;-68
2021/01/23 01:40:55;;;;;;;58.05;4.63;;;1.40;8.10;;;;;;5072099;28;20212;-68
2021/01/23 01:43:21;;;;;;;58.22;4.57;;;1.40;9.00;;;;;;5071765;28;20225;-68
2021/01/23 01:45:48;;;;;;;58.45;4.47;;;1.30;10.30;;;;;;5072259;28;20227;-68
2021/01/23 01:48:16;;;;;;;57.25;4.78;;;1.40;11.70;;;;;;5072155;28;20236;-68
2021/01/23 01:50:42;;;;;;;56.80;4.13;;;1.40;12.10;;;;;;5072047;28;20365;-68
2021/01/23 01:53:11;;;;;;;57.10;4.40;;;1.40;13.20;;;;;;5071731;28;20225;-68
2021/01/23 01:55:37;;;;;;;59.80;5.22;;;1.40;14.10;;;;;;5071836;28;20209;-68
2021/01/23 01:58:04;;;;;;;61.58;6.65;;;1.30;15.10;;;;;;5071801;28;20676;-68
2021/01/23 02:00:31;;;;;;;59.58;6.25;;;1.30;16.40;;;;;;5071475;28;20216;-68
2021/01/23 02:03:22;;;;;;;62.28;6.80;;;1.30;17.50;;;;;;5071892;28;20248;-68
2021/01/23 02:05:59;;;;;;;60.53;6.50;;;1.30;19.30;;;;;;5071752;28;20201;-68
2021/01/23 02:08:34;;;;;;;63.10;7.78;;;1.40;20.60;;;;;;5071750;28;20214;-68
2021/01/23 02:11:05;;;;;;;63.53;8.00;;;1.30;21.30;;;;;;5071891;28;20211;-68
2021/01/23 02:13:37;;;;;;;61.63;7.68;;;1.30;22.30;;;;;;5071683;28;20258;-68
2021/01/23 02:16:06;;;;;;;63.35;8.70;;;1.30;23.30;;;;;;5074201;28;20208;-69
2021/01/23 02:18:40;;;;;;;64.70;10.32;;;1.30;24.60;;;;;;5076661;28;20220;-68
2021/01/23 02:21:40;;;;;;;63.75;9.93;;;1.30;25.60;;;;;;5076111;28;20231;-68
2021/01/23 02:24:08;;;;;;;68.13;10.80;;;1.30;27.30;;;;;;5075987;28;20220;-68
2021/01/23 02:26:47;;;;;;;70.60;12.45;;;1.30;28.40;;;;;;5076168;28;20292;-68
2021/01/23 02:29:23;;;;;;;67.55;11.50;;;1.30;29.40;;;;;;5076042;28;20254;-68
2021/01/23 02:31:55;;;;;;;68.57;11.27;;;1.30;30.00;;;;;;5075964;28;20687;-68
2021/01/23 02:34:24;;;;;;;66.30;10.68;;;1.30;31.30;;;;;;5075609;28;20235;-68
2021/01/23 02:36:52;;;;;;;65.28;10.35;;;1.30;33.10;;;;;;5076127;28;20296;-68
2021/01/23 02:39:20;;;;;;;66.07;10.07;;;1.30;34.20;;;;;;5076191;28;20790;-68
2021/01/23 02:41:47;;;;;;;62.85;8.18;;;1.30;35.30;;;;;;5076217;28;20292;-68
2021/01/23 02:44:14;;;;;;;63.90;8.48;;;1.40;36.90;;;;;;5075652;28;20231;-68
2021/01/23 02:46:40;;;;;;;64.35;9.50;;;1.40;38.40;;;;;;5076502;28;20282;-68
2021/01/23 02:49:08;;;;;;;60.65;7.50;;;1.40;39.90;;;;;;5076204;28;20205;-68
2021/01/23 02:51:42;;;;;;;62.63;7.90;;;1.40;41.50;;;;;;5076302;28;20268;-68
2021/01/23 02:54:16;;;;;;;63.03;7.82;;;1.40;42.50;;;;;;5076190;28;20228;-68
2021/01/23 02:56:43;;;;;;;61.28;7.43;;;1.40;43.10;;;;;;5076527;28;20287;-68
2021/01/23 02:59:13;;;;;;;60.70;7.72;;;1.30;43.50;;;;;;5076387;28;20205;-68
2021/01/23 03:01:42;;;;;;;59.78;6.07;;;1.30;44.90;;;;;;5075679;28;20561;-68
2021/01/23 03:04:11;;;;;;;60.50;6.55;;;1.40;45.60;;;;;;5076172;28;20235;-69
2021/01/23 03:06:38;;;;;;;61.20;7.20;;;1.30;46.10;;;;;;5074846;28;20201;-68
2021/01/23 03:09:17;;;;;;;59.58;6.25;;;1.40;47.60;;;;;;5075262;28;20292;-68
2021/01/23 03:11:43;;;;;;;60.35;6.20;;;1.30;49.50;;;;;;5074954;28;20209;-68
2021/01/23 03:14:09;;;;;;;58.60;6.05;;;1.40;50.80;;;;;;5074894;28;20236;-68
2021/01/23 03:16:36;;;;;;;60.92;6.05;;;1.40;52.30;;;;;;5074772;28;20212;-68
2021/01/23 03:19:02;;;;;;;58.45;5.85;;;1.40;53.00;;;;;;5074754;28;20213;-68
2021/01/23 03:21:29;;;;;;;58.40;5.40;;;1.40;53.50;;;;;;5074821;28;20283;-69
2021/01/23 03:23:56;;;;;;;60.25;6.45;;;1.40;54.00;;;;;;5074610;28;20225;-68
2021/01/23 03:26:22;;;;;;;58.95;5.45;;;1.40;55.00;;;;;;5074757;28;20205;-68
2021/01/23 03:28:48;;;;;;;58.72;6.22;;;1.40;55.60;;;;;;5074777;28;20205;-68
2021/01/23 03:31:15;;;;;;;59.85;6.38;;;1.40;56.10;;;;;;5074888;28;20209;-68
2021/01/23 03:33:41;;;;;;;60.15;6.50;;;1.40;57.00;;;;;;5076790;28;20232;-68
2021/01/23 03:36:08;;;;;;;60.00;6.07;;;1.40;57.80;;;;;;5077027;28;20208;-68
2021/01/23 03:38:35;;;;;;;59.42;6.70;;;1.40;58.20;;;;;;5074773;28;20292;-68
2021/01/23 03:41:02;;;;;;;59.03;6.22;;;1.40;58.90;;;;;;5074641;28;20228;-68
2021/01/23 03:43:28;;;;;;;59.10;5.78;;;1.40;60.00;;;;;;5074351;28;20244;-68
2021/01/23 03:45:54;;;;;;;59.72;6.60;;;1.40;60.20;;;;;;5074357;28;20208;-68
2021/01/23 03:48:21;;;;;;;59.63;6.40;;;1.40;60.20;;;;;;5074208;28;20205;-68
2021/01/23 03:50:47;;;;;;;59.72;6.32;;;1.40;60.20;;;;;;5074191;28;20209;-68
2021/01/23 03:53:13;;;;;;;59.78;6.60;;;1.40;60.70;;;;;;5074093;28;20232;-68
2021/01/23 03:55:41;;;;;;;60.55;6.38;;;1.50;61.10;;;;;;5074603;28;20205;-68
2021/01/23 03:58:07;;;;;;;60.35;6.45;;;1.40;61.20;;;;;;5074142;28;20742;-68
2021/01/23 04:00:33;;;;;;;60.92;7.30;;;1.40;61.40;;;;;;5074238;28;20228;-68
2021/01/23 04:03:00;;;;;;;59.85;6.10;;;1.40;62.00;;;;;;5073824;28;20236;-68
2021/01/23 04:05:26;;;;;;;61.25;6.82;;;1.40;62.10;;;;;;5074212;28;20205;-68
2021/01/23 04:07:52;;;;;;;60.10;6.30;;;1.40;62.60;;;;;;5074032;28;20247;-68
2021/01/23 04:10:19;;;;;;;59.45;6.63;;;1.50;63.10;;;;;;5074012;28;20211;-68
2021/01/23 04:12:46;;;;;;;60.97;6.97;;;1.50;65.20;;;;;;5073544;28;20704;-68
2021/01/23 04:15:13;;;;;;;59.13;5.80;;;1.50;64.10;;;;;;5073809;28;20220;-68
2021/01/23 04:17:40;;;;;;;60.60;7.07;;;1.50;64.50;;;;;;5073676;28;20208;-68
2021/01/23 04:20:07;;;;;;;61.97;6.97;;;1.50;64.60;;;;;;5073687;28;20681;-68
2021/01/23 04:22:33;;;;;;;58.72;5.65;;;1.50;65.10;;;;;;5073383;28;20204;-68
2021/01/23 04:25:00;;;;;;;60.65;6.93;;;1.50;65.50;;;;;;5073375;28;20251;-68
2021/01/23 04:27:26;;;;;;;61.58;7.22;;;1.60;66.20;;;;;;5073564;28;20729;-68
2021/01/23 04:29:53;;;;;;;61.55;7.18;;;1.60;66.90;;;;;;5073540;28;20751;-68
2021/01/23 04:32:20;;;;;;;61.45;7.90;;;1.60;67.10;;;;;;5073214;28;20213;-68
2021/01/23 04:34:46;;;;;;;60.53;6.82;;;1.60;67.30;;;;;;5073266;28;20236;-68
2021/01/23 04:37:13;;;;;;;61.40;7.53;;;1.60;67.40;;;;;;5073490;28;20262;-68
2021/01/23 04:39:40;;;;;;;59.42;6.03;;;1.60;67.90;;;;;;5073537;28;20236;-68
2021/01/23 04:42:07;;;;;;;61.58;7.20;;;1.60;68.20;;;;;;5073237;28;20208;-68
2021/01/23 04:44:34;;;;;;;60.42;6.53;;;1.60;68.60;;;;;;5073159;28;20223;-68
2021/01/23 04:47:02;;;;;;;60.30;6.40;;;1.70;69.30;;;;;;5073420;28;20209;-68
2021/01/23 04:49:28;;;;;;;61.45;7.20;;;1.70;69.70;;;;;;5073253;28;20205;-68
2021/01/23 04:51:54;;;;;;;61.05;6.35;;;1.70;70.10;;;;;;5072878;28;20229;-68
2021/01/23 04:54:21;;;;;;;61.55;7.43;;;1.70;70.80;;;;;;5072973;28;20229;-68
2021/01/23 04:56:47;;;;;;;64.28;7.47;;;1.70;71.30;;;;;;5073052;28;20589;-68
2021/01/23 04:59:14;;;;;;;61.28;7.30;;;1.70;72.00;;;;;;5072902;28;20246;-68
2021/01/23 05:01:40;;;;;;;66.20;7.90;;;1.70;72.10;;;;;;5073098;28;20490;-68
2021/01/23 05:04:07;;;;;;;61.13;7.65;;;1.70;72.50;;;;;;5072659;28;20764;-68
2021/01/23 05:06:33;;;;;;;61.33;6.70;;;1.70;72.80;;;;;;5073042;28;20296;-68
2021/01/23 05:09:00;;;;;;;60.97;7.07;;;1.70;73.20;;;;;;5072830;28;20209;-68
2021/01/23 05:11:45;;;;;;;60.92;7.25;;;1.70;73.60;;;;;;5072812;28;20259;-68
2021/01/23 05:14:13;;;;;;;62.35;7.72;;;1.70;73.80;;;;;;5072374;28;20316;-68
2021/01/23 05:16:39;;;;;;;65.28;8.80;;;1.70;74.00;;;;;;5072783;28;20211;-68
2021/01/23 05:19:07;;;;;;;61.40;6.90;;;1.70;74.20;;;;;;5072456;28;20209;-68
2021/01/23 05:21:34;;;;;;;60.55;7.00;;;1.60;74.40;;;;;;5072584;28;20209;-68
2021/01/23 05:24:07;;;;;;;64.68;7.30;;;1.60;74.70;;;;;;5072243;28;20221;-68
2021/01/23 05:26:34;;;;;;;64.55;8.10;;;1.60;74.70;;;;;;5072381;28;20213;-68
2021/01/23 05:29:08;;;;;;;62.88;7.32;;;1.60;74.90;;;;;;5072492;28;20616;-68
2021/01/23 05:31:35;;;;;;;60.22;6.40;;;1.50;74.90;;;;;;5072408;28;20204;-68
2021/01/23 05:34:01;;;;;;;62.38;7.63;;;1.50;75.50;;;;;;5071903;28;20232;-68
2021/01/23 05:36:40;;;;;;;64.47;8.05;;;1.50;75.30;;;;;;5071644;28;20230;-68
2021/01/23 05:39:06;;;;;;;62.90;7.13;;;1.50;75.40;;;;;;5072406;28;20298;-68
2021/01/23 05:41:32;;;;;;;61.75;7.70;;;1.50;75.60;;;;;;5072319;28;20223;-68
2021/01/23 05:43:59;;;;;;;64.45;8.38;;;1.50;75.90;;;;;;5072010;28;20221;-68
2021/01/23 05:46:31;;;;;;;65.50;8.40;;;1.50;76.20;;;;;;5072189;28;20275;-68
2021/01/23 05:48:58;;;;;;;63.78;7.72;;;1.50;76.20;;;;;;5071989;28;20201;-68
2021/01/23 05:51:25;;;;;;;65.32;8.07;;;1.50;76.30;;;;;;5071937;28;20212;-68
2021/01/23 05:53:53;;;;;;;62.50;7.65;;;1.50;76.50;;;;;;5071810;28;20224;-68
2021/01/23 05:56:19;;;;;;;65.57;8.40;;;1.50;76.70;;;;;;5072121;28;20243;-68
2021/01/23 05:58:46;;;;;;;67.88;8.27;;;1.50;76.80;;;;;;5072068;28;20252;-68
2021/01/23 06:01:15;;;;;;;63.22;8.20;;;1.40;76.90;;;;;;5072000;28;20209;-68
2021/01/23 06:03:43;;;;;;;65.97;8.85;;;1.50;77.20;;;;;;5071505;28;20229;-68
2021/01/23 06:06:10;;;;;;;64.47;8.98;;;1.50;77.60;;;;;;5071865;28;20688;-68
2021/01/23 06:08:40;;;;;;;65.15;8.57;;;1.50;77.60;;;;;;5071864;28;20258;-68
2021/01/23 06:11:39;;;;;;;63.80;8.50;;;1.40;77.60;;;;;;5071876;28;20219;-68
2021/01/23 06:14:06;;;;;;;63.50;8.32;;;1.40;77.80;;;;;;5071345;28;20225;-68
2021/01/23 06:16:44;;;;;;;63.65;8.95;;;1.40;77.90;;;;;;5071795;28;20208;-68
2021/01/23 06:19:42;;;;;;;64.10;8.15;;;1.40;78.00;;;;;;5071679;28;20208;-68
2021/01/23 06:22:09;;;;;;;62.40;8.38;;;1.40;78.10;;;;;;5071521;28;20664;-68
2021/01/23 06:24:54;;;;;;;63.83;8.85;;;1.40;78.30;;;;;;5071423;28;20306;-68
2021/01/23 06:27:37;;;;;;;63.35;7.57;;;1.40;78.30;;;;;;5071543;28;20209;-68
2021/01/23 06:30:27;;;;;;;66.28;9.48;;;1.40;78.40;;;;;;5070111;28;20205;-68
2021/01/23 06:32:53;;;;;;;65.45;9.70;;;1.40;78.60;;;;;;5070931;28;20268;-68
2021/01/23 06:35:20;;;;;;;65.93;9.50;;;1.40;78.70;;;;;;5071657;28;20556;-68
2021/01/23 06:37:46;;;;;;;68.65;9.15;;;1.40;78.70;;;;;;5071505;28;20255;-68
2021/01/23 06:40:14;;;;;;;68.35;10.85;;;1.40;79.10;;;;;;5071597;28;20216;-68
2021/01/23 06:42:43;;;;;;;68.05;10.73;;;1.40;79.30;;;;;;5071352;28;20236;-68
2021/01/23 06:45:15;;;;;;;67.90;9.52;;;1.40;79.10;;;;;;5071307;28;20204;-68
2021/01/23 06:47:43;;;;;;;67.53;9.55;;;1.40;79.30;;;;;;5074632;28;20618;-68
2021/01/23 06:50:10;;;;;;;68.15;10.27;;;1.40;79.30;;;;;;5075192;28;20723;-68
2021/01/23 06:52:50;;;;;;;67.57;10.15;;;1.40;79.60;;;;;;5075244;28;20582;-68
2021/01/23 06:55:17;;;;;;;68.72;10.38;;;1.40;79.70;;;;;;5075294;28;20208;-68
2021/01/23 06:57:47;;;;;;;65.72;10.25;;;1.40;79.90;;;;;;5075295;28;20467;-68
2021/01/23 07:00:14;;;;;;;76.28;15.70;;;1.40;80.00;;;;;;5075110;28;20205;-68
2021/01/23 07:02:41;;;;;;;83.88;19.50;;;1.40;80.50;;;;;;5075265;28;20239;-68
2021/01/23 07:05:09;;;;;;;83.85;19.58;;;1.40;80.60;;;;;;5075113;28;20207;-68
2021/01/23 07:07:39;;;;;;;80.35;18.77;;;1.40;80.50;;;;;;5075129;28;20216;-68
2021/01/23 07:10:15;;;;;;;84.13;18.42;;;1.30;80.70;;;;;;5074991;28;20560;-68
2021/01/23 07:12:43;;;;;;;88.18;22.13;;;1.30;80.60;;;;;;5074821;28;20201;-68
2021/01/23 07:15:13;;;;;;;90.32;19.40;;;1.30;81.00;;;;;;5074887;28;20323;-68
2021/01/23 07:17:41;;;;;;;77.97;17.08;;;1.30;80.80;;;;;;5075103;28;20212;-68
2021/01/23 07:20:08;;;;;;;72.35;14.75;;;1.30;81.00;;;;;;5074761;28;20296;-68
2021/01/23 07:22:35;;;;;;;73.47;14.60;;;1.30;81.00;;;;;;5074655;28;20209;-68
2021/01/23 07:25:02;;;;;;;68.38;11.77;;;1.30;81.10;;;;;;5074460;28;20676;-68
2021/01/23 07:27:29;;;;;;;69.82;12.77;;;1.30;81.30;;;;;;5075017;28;20209;-68
2021/01/23 07:29:55;;;;;;;67.38;9.68;;;1.40;81.60;;;;;;5074816;28;20232;-68
2021/01/23 07:32:23;;;;;;;68.65;12.32;;;1.40;81.60;;;;;;5074544;28;20270;-68
2021/01/23 07:34:58;;;;;;;70.90;13.70;;;1.40;81.80;;;;;;5074268;28;20236;-68
2021/01/23 07:37:42;;;;;;;67.88;11.02;;;1.40;82.00;;;;;;5074474;28;20295;-68
2021/01/23 07:40:11;;;;;;;68.28;11.18;;;1.40;82.20;;;;;;5074211;28;20212;-69
2021/01/23 07:42:38;;;;;;;69.68;10.93;;;1.50;82.60;;;;;;5074347;28;20275;-69
2021/01/23 07:45:06;;;;;;;68.63;12.20;;;1.50;83.00;;;;;;5074386;28;20201;-69
2021/01/23 07:47:34;;;;;;;66.68;11.10;;;1.50;83.10;;;;;;5074307;28;20228;-69
2021/01/23 07:50:08;;;;;;;69.93;10.23;;;1.50;83.60;;;;;;5074117;28;20205;-69
2021/01/23 07:52:35;;;;;;;66.70;10.45;;;1.60;83.70;;;;;;5074318;28;20236;-69
2021/01/23 07:55:02;;;;;;;74.10;10.88;;;1.60;83.90;;;;;;5074006;28;20374;-67
2021/01/23 07:57:29;;;;;;;67.55;10.90;;;1.60;84.40;;;;;;5074046;28;20255;-69
2021/01/23 07:59:55;;;;;;;70.57;10.68;;;1.70;85.00;;;;;;5073681;28;20205;-69
2021/01/23 08:02:21;;;;;;;68.40;11.93;;;1.80;89.50;;;;;;5073823;28;20733;-69
2021/01/23 08:04:50;;;;;;;69.00;12.07;;;1.80;86.60;;;;;;5073934;28;20251;-69
2021/01/23 08:07:25;;;;;;;64.90;10.10;;;1.90;86.60;;;;;;5074157;28;20231;-69
2021/01/23 08:10:16;;;;;;;67.22;10.57;;;1.90;87.10;;;;;;5074024;28;20205;-69
2021/01/23 08:12:54;;;;;;;65.28;9.10;;;2.00;87.70;;;;;;5073775;28;20604;-69
2021/01/23 08:15:24;;;;;;;62.65;8.20;;;2.10;88.40;;;;;;5073815;28;20236;-69
2021/01/23 08:17:51;;;;;;;63.53;8.38;;;2.10;88.70;;;;;;5073851;28;20201;-69
2021/01/23 08:20:31;;;;;;;63.65;7.85;;;2.20;89.10;;;;;;5073938;28;20209;-69
2021/01/23 08:22:59;;;;;;;61.90;7.45;;;2.20;90.00;;;;;;5073620;28;20221;-69
2021/01/23 08:25:27;;;;;;;63.78;7.28;;;2.30;89.90;;;;;;5073611;28;20212;-69
2021/01/23 08:27:55;;;;;;;64.18;7.57;;;2.30;90.10;;;;;;5072279;28;20201;-69
2021/01/23 08:30:22;;;;;;;64.90;7.97;;;2.30;90.30;;;;;;5072462;28;20201;-69
2021/01/23 08:32:49;;;;;;;62.78;8.35;;;2.30;90.60;;;;;;5071947;28;20197;-69
2021/01/23 08:35:16;;;;;;;64.20;8.50;;;2.40;90.80;;;;;;5072236;28;20221;-69
2021/01/23 08:37:43;;;;;;;63.35;8.40;;;2.40;91.00;;;;;;5071727;28;20205;-69
2021/01/23 08:40:10;;;;;;;63.45;8.75;;;2.50;91.20;;;;;;5071997;28;20197;-69
2021/01/23 08:42:36;;;;;;;64.30;9.43;;;2.50;91.10;;;;;;5071948;28;20246;-69
2021/01/23 08:45:04;;;;;;;68.03;9.13;;;2.50;91.10;;;;;;5072740;28;20614;-69
2021/01/23 08:47:30;;;;;;;62.00;8.48;;;2.60;91.20;;;;;;5073296;28;20209;-69
2021/01/23 08:49:56;;;;;;;71.13;13.27;;;2.70;91.40;;;;;;5071996;28;20305;-69
2021/01/23 08:52:23;;;;;;;71.13;11.95;;;2.80;91.70;;;;;;5072590;28;20295;-69
2021/01/23 08:54:50;;;;;;;64.60;10.02;;;3.00;92.00;;;;;;5072747;28;20225;-70
2021/01/23 08:57:16;;;;;;;64.18;8.85;;;3.10;92.30;;;;;;5073066;28;20212;-68
2021/01/23 08:59:42;;;;;;;71.25;7.60;;;3.20;92.60;;;;;;5072702;28;20244;-67
2021/01/23 09:02:10;;;;;;;64.85;8.95;;;3.20;92.90;;;;;;5072802;28;20300;-67
2021/01/23 09:04:37;;;;;;;63.92;9.25;;;3.30;93.10;;;;;;5072747;28;20322;-70
2021/01/23 09:07:04;;;;;;;64.32;9.13;;;3.40;93.20;;;;;;5072427;28;20205;-70
2021/01/23 09:09:30;;;;;;;65.93;8.40;;;3.40;93.40;;;;;;5071780;28;20240;-67
2021/01/23 09:11:57;;;;;;;64.03;8.63;;;3.50;93.20;;;;;;5072117;28;20204;-67
2021/01/23 09:14:24;;;;;;;64.95;9.60;;;3.50;93.60;;;;;;5072247;28;20235;-69
2021/01/23 09:16:50;;;;;;;68.03;11.70;;;3.50;94.90;;;;;;5072378;28;20786;-70
2021/01/23 09:19:16;;;;;;;63.75;8.50;;;3.60;95.70;;;;;;5072235;28;20704;-69
2021/01/23 09:21:43;;;;;;;65.60;8.50;;;3.70;95.60;;;;;;5072314;28;20489;-69
2021/01/23 09:24:10;;;;;;;69.28;10.93;;;3.70;95.70;;;;;;5072151;28;20256;-69
2021/01/23 09:26:36;;;;;;;66.03;10.45;;;3.90;95.70;;;;;;5072235;28;20204;-69
2021/01/23 09:29:04;;;;;;;62.80;8.30;;;4.00;95.80;;;;;;5071098;28;20407;-69
2021/01/23 09:31:30;;;;;;;61.03;7.45;;;4.10;95.40;;;;;;5072053;28;20216;-69
2021/01/23 09:33:56;;;;;;;65.70;8.50;;;4.10;95.10;;;;;;5071771;28;20321;-69
2021/01/23 09:36:23;;;;;;;62.70;8.60;;;4.20;94.80;;;;;;5072209;28;20288;-67
2021/01/23 09:38:49;;;;;;;62.38;7.22;;;4.30;94.60;;;;;;5072215;28;20555;-69
2021/01/23 09:41:16;;;;;;;61.70;8.23;;;4.30;94.50;;;;;;5071921;28;20240;-69
2021/01/23 09:43:42;;;;;;;61.92;6.80;;;4.40;95.00;;;;;;5071557;28;20311;-69
2021/01/23 09:46:09;;;;;;;62.78;7.88;;;4.60;94.50;;;;;;5071857;28;20255;-69
2021/01/23 09:48:36;;;;;;;59.60;6.50;;;4.70;94.60;;;;;;5071693;28;20296;-69
2021/01/23 09:51:02;;;;;;;60.92;6.65;;;4.80;95.00;;;;;;5071852;28;20336;-69
2021/01/23 09:53:28;;;;;;;62.05;7.68;;;5.00;95.50;;;;;;5071711;28;20236;-68
2021/01/23 09:55:54;;;;;;;60.95;6.57;;;5.20;95.60;;;;;;5071989;28;20211;-67
2021/01/23 09:58:21;;;;;;;61.17;7.18;;;5.40;95.80;;;;;;5071811;28;20207;-67
2021/01/23 10:00:48;;;;;;;60.70;5.88;;;5.50;93.80;;;;;;5070456;28;20213;-69
2021/01/23 10:03:15;;;;;;;59.17;6.65;;;5.60;87.70;;;;;;5071338;28;20221;-67
2021/01/23 10:05:41;;;;;;;68.78;15.00;;;5.60;72.40;;;;;;5071481;28;20270;-67
2021/01/23 10:08:08;;;;;;;65.13;8.48;;;5.80;75.90;;;;;;5071884;28;20205;-67
2021/01/23 10:10:34;;;;;;;61.38;6.05;;;5.90;75.40;;;;;;5071444;28;20295;-68
2021/01/23 10:13:00;;;;;;;95.38;26.10;;;6.10;63.80;;;;;;5071167;28;20228;-68
2021/01/23 10:15:27;;;;;;;59.83;6.30;;;6.30;67.40;;;;;;5071161;28;20273;-68
2021/01/23 10:17:53;;;;;;;60.33;6.07;;;6.50;29.60;;;;;;5071375;28;20676;-70
2021/01/23 10:20:20;;;;;;;62.17;6.97;;;6.80;13.30;;;;;;5071543;28;20228;-68
2021/01/23 10:22:47;;;;;;;61.50;6.87;;;7.20;15.20;;;;;;5070976;28;20764;-68
2021/01/23 10:25:13;;;;;;;59.42;5.20;;;7.70;1.00;;;;;;5071402;28;20451;-67
2021/01/23 10:27:39;;;;;;;59.07;4.60;;;8.10;1.00;;;;;;5071507;28;20215;-67
2021/01/23 10:30:07;;;;;;;60.22;5.30;;;8.40;1.00;;;;;;5071362;28;20964;-68
2021/01/23 10:32:33;;;;;;;66.47;5.33;;;8.60;1.00;;;;;;5069756;28;20612;-68
2021/01/23 10:35:00;;;;;;;57.50;4.10;;;8.70;1.00;;;;;;5071530;28;20557;-68
2021/01/23 10:37:27;;;;;;;58.27;4.77;;;8.80;1.00;;;;;;5071199;28;20450;-68
2021/01/23 10:39:53;;;;;;;57.47;4.50;;;9.00;1.00;;;;;;5071367;28;20449;-68
2021/01/23 10:42:20;;;;;;;61.13;4.50;;;9.10;1.00;;;;;;5071012;28;20453;-68
2021/01/23 10:44:46;;;;;;;59.20;5.37;;;9.20;1.00;;;;;;5071056;28;20546;-68
2021/01/23 10:47:13;;;;;;;58.37;4.77;;;9.40;1.00;;;;;;5070986;28;20527;-68
2021/01/23 10:49:39;;;;;;;59.00;5.13;;;9.20;1.00;;;;;;5071128;28;20453;-68
2021/01/23 10:52:06;;;;;;;58.57;4.27;;;8.80;1.00;;;;;;5070926;28;20444;-68
2021/01/23 10:54:33;;;;;;;58.90;4.30;;;8.20;1.00;;;;;;5070918;28;20489;-68
2021/01/23 10:57:02;;;;;;;58.08;4.70;;;7.80;1.00;;;;;;5071077;28;20444;-68
2021/01/23 10:59:28;;;;;;;59.35;5.13;;;7.50;1.00;;;;;;5071073;28;20201;-68
2021/01/23 11:01:54;;;;;;;58.03;4.03;;;7.50;1.00;;;;;;5069302;28;20293;-68
2021/01/23 11:04:21;;;;;;;59.00;4.68;;;7.50;1.00;;;;;;5070937;28;20464;-68
2021/01/23 11:06:47;;;;;;;57.47;4.10;;;7.70;1.00;;;;;;5070955;28;20213;-68
2021/01/23 11:09:13;;;;;;;63.63;4.10;;;7.90;1.00;;;;;;5071015;28;20206;-68
2021/01/23 11:11:40;;;;;;;61.08;4.45;;;7.90;1.00;;;;;;5071020;28;20474;-67
2021/01/23 11:14:07;;;;;;;60.70;4.60;;;7.90;1.00;;;;;;5070479;28;20226;-67
2021/01/23 11:16:33;;;;;;;57.75;4.45;;;8.00;1.00;;;;;;5070839;28;20932;-68
2021/01/23 11:18:59;;;;;;;57.27;4.63;;;8.10;1.00;;;;;;5070944;28;20654;-69
2021/01/23 11:21:26;;;;;;;57.90;3.80;;;8.10;1.00;;;;;;5071073;28;20444;-68
2021/01/23 11:23:52;;;;;;;58.20;4.17;;;8.00;1.00;;;;;;5070966;28;20988;-68
2021/01/23 11:26:18;;;;;;;57.57;3.80;;;8.10;1.00;;;;;;5070566;28;20448;-68
2021/01/23 11:28:45;;;;;;;56.83;4.20;;;8.30;1.00;;;;;;5070511;28;20484;-68
2021/01/23 11:31:12;;;;;;;57.60;4.53;;;8.40;1.00;;;;;;5070769;28;20443;-68
2021/01/23 11:33:39;;;;;;;62.10;4.50;;;8.70;1.00;;;;;;5071154;28;20842;-68
2021/01/23 11:36:06;;;;;;;57.10;3.70;;;9.10;1.00;;;;;;5074276;28;20496;-68
2021/01/23 11:38:34;;;;;;;58.10;4.40;;;9.60;1.00;;;;;;5074359;28;20449;-68
2021/01/23 11:41:00;;;;;;;58.33;4.80;;;10.10;1.00;;;;;;5074217;28;20543;-68
2021/01/23 11:43:27;;;;;;;59.10;4.17;;;10.40;1.00;;;;;;5073899;28;20470;-68
2021/01/23 11:45:54;;;;;;;57.30;4.30;;;10.70;1.00;;;;;;5074265;28;20454;-68
2021/01/23 11:48:20;;;;;;;57.67;4.30;;;10.90;1.00;;;;;;5074421;28;20450;-68
2021/01/23 11:50:47;;;;;;;58.47;4.13;;;11.10;1.00;;;;;;5074264;28;20454;-68
2021/01/23 11:53:13;;;;;;;58.13;4.80;;;11.10;1.00;;;;;;5074229;28;20520;-68
2021/01/23 11:55:39;;;;;;;65.77;5.03;;;11.50;1.00;;;;;;5073979;28;20491;-69
2021/01/23 11:58:06;;;;;;;59.97;3.97;;;12.10;1.00;;;;;;5074238;28;20463;-69
2021/01/23 12:00:34;;;;;;;58.10;3.80;;;12.90;1.00;;;;;;5074270;28;20492;-68
2021/01/23 12:03:01;;;;;;;57.77;4.20;;;13.40;1.00;;;;;;5074027;28;20475;-68
2021/01/23 12:05:28;;;;;;;57.60;4.40;;;13.70;1.00;;;;;;5072678;28;20727;-68
2021/01/23 12:07:54;;;;;;;59.20;4.60;;;13.40;1.00;;;;;;5073798;28;20506;-68
2021/01/23 12:10:21;;;;;;;57.77;4.00;;;13.20;1.00;;;;;;5073647;28;20451;-68
2021/01/23 12:12:47;;;;;;;56.80;3.87;;;12.90;1.00;;;;;;5073637;28;20451;-68
2021/01/23 12:15:16;;;;;;;57.40;4.00;;;12.70;1.00;;;;;;5073993;28;20504;-68
2021/01/23 12:17:42;;;;;;;59.93;4.37;;;12.50;1.00;;;;;;5073760;28;20493;-68
2021/01/23 12:20:11;;;;;;;57.80;4.67;;;12.00;1.00;;;;;;5073661;28;20454;-68
2021/01/23 12:22:37;;;;;;;57.50;3.87;;;11.40;1.00;;;;;;5073223;28;20448;-68
2021/01/23 12:25:05;;;;;;;57.07;4.37;;;10.80;1.00;;;;;;5073154;28;20452;-68
2021/01/23 12:27:32;;;;;;;59.47;4.43;;;10.50;1.00;;;;;;5073369;28;20502;-68
2021/01/23 12:29:58;;;;;;;59.00;4.63;;;10.60;1.00;;;;;;5073654;28;20536;-68
2021/01/23 12:32:24;;;;;;;57.80;4.50;;;10.60;1.00;;;;;;5073281;28;20863;-68
2021/01/23 12:34:51;;;;;;;57.53;3.77;;;10.20;1.00;;;;;;5073015;28;21025;-68
2021/01/23 12:37:18;;;;;;;59.93;4.30;;;9.80;1.00;;;;;;5071989;28;20878;-68
2021/01/23 12:39:44;;;;;;;62.10;4.63;;;9.60;1.00;;;;;;5072768;28;20451;-68
2021/01/23 12:42:11;;;;;;;59.17;4.33;;;9.50;1.00;;;;;;5073106;28;20447;-68
2021/01/23 12:44:37;;;;;;;58.17;4.37;;;9.20;1.00;;;;;;5073180;28;20470;-69
2021/01/23 12:47:03;;;;;;;58.47;4.90;;;9.00;1.00;;;;;;5073080;28;20464;-69
2021/01/23 12:49:30;;;;;;;58.30;4.43;;;9.10;1.00;;;;;;5072893;28;20523;-69
2021/01/23 12:51:56;;;;;;;58.07;4.83;;;9.30;1.00;;;;;;5072763;28;20482;-69